sensor_id;sensor_type;location;lat;lon;timestamp;pressure;altitude;pressure_sealevel;temperature;humidity
59190;BME280;50749;51.636;4.948;2023-02-11T00:00:13;103516.06;;;17.44;47.32
59190;BME280;50749;51.636;4.948;2023-02-11T00:02:59;103511.94;;;17.42;47.36
59190;BME280;50749;51.636;4.948;2023-02-11T00:05:25;103508.34;;;17.41;47.14
59190;BME280;50749;51.636;4.948;2023-02-11T00:07:51;103512.00;;;17.37;47.30
59190;BME280;50749;51.636;4.948;2023-02-11T00:10:17;103512.81;;;17.37;47.07
59190;BME280;50749;51.636;4.948;2023-02-11T00:12:43;103511.16;;;17.36;47.30
59190;BME280;50749;51.636;4.948;2023-02-11T00:15:09;103505.91;;;17.35;47.06
59190;BME280;50749;51.636;4.948;2023-02-11T00:17:35;103501.22;;;17.35;47.21
59190;BME280;50749;51.636;4.948;2023-02-11T00:20:01;103496.25;;;17.32;47.42
59190;BME280;50749;51.636;4.948;2023-02-11T00:22:26;103500.13;;;17.31;47.04
59190;BME280;50749;51.636;4.948;2023-02-11T00:24:52;103496.84;;;17.29;47.23
59190;BME280;50749;51.636;4.948;2023-02-11T00:27:18;103500.13;;;17.31;47.21
59190;BME280;50749;51.636;4.948;2023-02-11T00:29:44;103501.56;;;17.29;47.05
59190;BME280;50749;51.636;4.948;2023-02-11T00:32:10;103499.88;;;17.27;47.40
59190;BME280;50749;51.636;4.948;2023-02-11T00:34:36;103504.59;;;17.27;47.27
59190;BME280;50749;51.636;4.948;2023-02-11T00:37:03;103501.31;;;17.25;47.15
59190;BME280;50749;51.636;4.948;2023-02-11T00:39:29;103495.78;;;17.25;47.28
59190;BME280;50749;51.636;4.948;2023-02-11T00:41:56;103494.13;;;17.24;47.50
59190;BME280;50749;51.636;4.948;2023-02-11T00:44:22;103491.66;;;17.22;47.32
59190;BME280;50749;51.636;4.948;2023-02-11T00:46:48;103499.13;;;17.22;47.22
59190;BME280;50749;51.636;4.948;2023-02-11T00:49:14;103490.28;;;17.20;47.20
59190;BME280;50749;51.636;4.948;2023-02-11T00:51:40;103487.53;;;17.20;47.35
59190;BME280;50749;51.636;4.948;2023-02-11T00:54:06;103497.75;;;17.19;47.35
59190;BME280;50749;51.636;4.948;2023-02-11T00:56:32;103497.75;;;17.19;47.00
59190;BME280;50749;51.636;4.948;2023-02-11T00:58:58;103483.41;;;17.17;47.05
59190;BME280;50749;51.636;4.948;2023-02-11T01:01:23;103479.81;;;17.17;47.40
59190;BME280;50749;51.636;4.948;2023-02-11T01:03:49;103486.44;;;17.16;47.35
59190;BME280;50749;51.636;4.948;2023-02-11T01:06:16;103491.97;;;17.16;47.04
59190;BME280;50749;51.636;4.948;2023-02-11T01:08:42;103482.03;;;17.15;47.33
59190;BME280;50749;51.636;4.948;2023-02-11T01:11:13;103483.16;;;17.14;47.37
59190;BME280;50749;51.636;4.948;2023-02-11T01:13:40;103484.25;;;17.13;47.09
59190;BME280;50749;51.636;4.948;2023-02-11T01:16:07;103487.00;;;17.13;47.06
59190;BME280;50749;51.636;4.948;2023-02-11T01:18:34;103485.38;;;17.12;47.31
59190;BME280;50749;51.636;4.948;2023-02-11T01:21:00;103484.53;;;17.11;47.00
59190;BME280;50749;51.636;4.948;2023-02-11T01:23:26;103487.31;;;17.11;47.39
59190;BME280;50749;51.636;4.948;2023-02-11T01:25:52;103488.44;;;17.10;47.38
59190;BME280;50749;51.636;4.948;2023-02-11T01:28:24;103493.13;;;17.09;47.18
59190;BME280;50749;51.636;4.948;2023-02-11T01:30:51;103495.34;;;17.07;47.38
59190;BME280;50749;51.636;4.948;2023-02-11T01:33:17;103482.66;;;17.06;47.11
59190;BME280;50749;51.636;4.948;2023-02-11T01:35:43;103479.91;;;17.06;46.96
59190;BME280;50749;51.636;4.948;2023-02-11T01:38:24;103481.00;;;17.05;47.54
59190;BME280;50749;51.636;4.948;2023-02-11T01:40:56;103470.22;;;17.04;47.18
59190;BME280;50749;51.636;4.948;2023-02-11T01:43:23;103474.94;;;17.03;47.12
59190;BME280;50749;51.636;4.948;2023-02-11T01:46:11;103478.53;;;17.04;47.44
59190;BME280;50749;51.636;4.948;2023-02-11T01:49:13;103467.75;;;17.02;47.31
59190;BME280;50749;51.636;4.948;2023-02-11T01:51:50;103465.81;;;17.03;47.23
59190;BME280;50749;51.636;4.948;2023-02-11T01:54:21;103456.97;;;17.01;47.23
59190;BME280;50749;51.636;4.948;2023-02-11T01:57:06;103454.50;;;16.99;47.15
59190;BME280;50749;51.636;4.948;2023-02-11T02:02:47;103458.41;;;16.98;47.36
59190;BME280;50749;51.636;4.948;2023-02-11T02:10:45;103462.56;;;16.96;47.56
59190;BME280;50749;51.636;4.948;2023-02-11T02:13:12;103468.38;;;16.94;47.20
59190;BME280;50749;51.636;4.948;2023-02-11T02:15:40;103466.72;;;16.93;47.55
59190;BME280;50749;51.636;4.948;2023-02-11T02:38:30;103458.47;;;16.88;47.40
59190;BME280;50749;51.636;4.948;2023-02-11T02:41:09;103459.88;;;16.85;47.35
59190;BME280;50749;51.636;4.948;2023-02-11T02:43:40;103465.41;;;16.85;47.12
59190;BME280;50749;51.636;4.948;2023-02-11T02:48:46;103443.53;;;16.84;47.41
59190;BME280;50749;51.636;4.948;2023-02-11T03:08:08;103467.34;;;16.80;47.45
59190;BME280;50749;51.636;4.948;2023-02-11T03:10:49;103464.03;;;16.78;47.52
59190;BME280;50749;51.636;4.948;2023-02-11T03:13:18;103470.41;;;16.78;47.31
59190;BME280;50749;51.636;4.948;2023-02-11T03:15:49;103461.25;;;16.78;47.48
59190;BME280;50749;51.636;4.948;2023-02-11T03:18:19;103451.34;;;16.77;47.52
59190;BME280;50749;51.636;4.948;2023-02-11T03:20:49;103445.81;;;16.77;47.34
59190;BME280;50749;51.636;4.948;2023-02-11T03:23:27;103448.03;;;16.75;47.38
59190;BME280;50749;51.636;4.948;2023-02-11T03:26:01;103442.53;;;16.75;47.70
59190;BME280;50749;51.636;4.948;2023-02-11T03:28:33;103446.66;;;16.72;47.43
59190;BME280;50749;51.636;4.948;2023-02-11T03:31:32;103445.56;;;16.73;47.32
59190;BME280;50749;51.636;4.948;2023-02-11T03:34:14;103438.38;;;16.72;47.35
59190;BME280;50749;51.636;4.948;2023-02-11T03:36:46;103438.66;;;16.70;47.55
59190;BME280;50749;51.636;4.948;2023-02-11T03:39:16;103441.44;;;16.70;47.62
59190;BME280;50749;51.636;4.948;2023-02-11T03:41:46;103440.59;;;16.70;47.67
59190;BME280;50749;51.636;4.948;2023-02-11T03:44:14;103446.13;;;16.70;47.52
59190;BME280;50749;51.636;4.948;2023-02-11T03:46:44;103445.31;;;16.69;47.45
59190;BME280;50749;51.636;4.948;2023-02-11T03:49:14;103444.47;;;16.69;47.55
59190;BME280;50749;51.636;4.948;2023-02-11T03:51:43;103442.00;;;16.67;47.73
59190;BME280;50749;51.636;4.948;2023-02-11T03:54:16;103438.41;;;16.67;47.34
59190;BME280;50749;51.636;4.948;2023-02-11T03:56:47;103439.50;;;16.66;47.41
59190;BME280;50749;51.636;4.948;2023-02-11T03:59:13;103434.84;;;16.66;47.53
59190;BME280;50749;51.636;4.948;2023-02-11T04:01:39;103434.84;;;16.66;47.66
59190;BME280;50749;51.636;4.948;2023-02-11T04:04:05;103437.88;;;16.65;47.60
59190;BME280;50749;51.636;4.948;2023-02-11T04:06:31;103437.88;;;16.65;47.46
59190;BME280;50749;51.636;4.948;2023-02-11T04:08:57;103442.03;;;16.62;47.71
59190;BME280;50749;51.636;4.948;2023-02-11T04:11:23;103439.25;;;16.62;47.59
59190;BME280;50749;51.636;4.948;2023-02-11T04:13:48;103440.13;;;16.63;47.43
59190;BME280;50749;51.636;4.948;2023-02-11T04:16:14;103437.34;;;16.63;47.67
59190;BME280;50749;51.636;4.948;2023-02-11T04:18:40;103419.94;;;16.62;47.43
59190;BME280;50749;51.636;4.948;2023-02-11T04:21:06;103415.53;;;16.61;47.56
59190;BME280;50749;51.636;4.948;2023-02-11T04:23:32;103419.41;;;16.60;47.77
59190;BME280;50749;51.636;4.948;2023-02-11T04:25:58;103412.22;;;16.59;47.37
59190;BME280;50749;51.636;4.948;2023-02-11T04:28:23;103418.88;;;16.58;47.84
59190;BME280;50749;51.636;4.948;2023-02-11T04:30:51;103410.59;;;16.58;47.65
59190;BME280;50749;51.636;4.948;2023-02-11T04:33:17;103413.34;;;16.58;47.52
59190;BME280;50749;51.636;4.948;2023-02-11T04:35:43;103410.59;;;16.58;47.76
59190;BME280;50749;51.636;4.948;2023-02-11T04:38:08;103414.44;;;16.57;47.71
59190;BME280;50749;51.636;4.948;2023-02-11T04:40:34;103410.88;;;16.57;47.87
59190;BME280;50749;51.636;4.948;2023-02-11T04:43:00;103411.97;;;16.56;47.66
59190;BME280;50749;51.636;4.948;2023-02-11T04:45:26;103411.97;;;16.56;47.56
59190;BME280;50749;51.636;4.948;2023-02-11T04:47:52;103411.97;;;16.56;47.66
59190;BME280;50749;51.636;4.948;2023-02-11T04:50:18;103417.78;;;16.54;47.85
59190;BME280;50749;51.636;4.948;2023-02-11T04:52:44;103415.00;;;16.54;47.49
59190;BME280;50749;51.636;4.948;2023-02-11T04:55:11;103427.19;;;16.53;47.90
59190;BME280;50749;51.636;4.948;2023-02-11T04:57:37;103428.28;;;16.52;47.99
59190;BME280;50749;51.636;4.948;2023-02-11T05:00:04;103428.28;;;16.52;48.00
59190;BME280;50749;51.636;4.948;2023-02-11T05:02:31;103431.06;;;16.52;48.16
59190;BME280;50749;51.636;4.948;2023-02-11T05:04:57;103414.47;;;16.52;47.61
59190;BME280;50749;51.636;4.948;2023-02-11T05:07:22;103410.09;;;16.51;47.70
59190;BME280;50749;51.636;4.948;2023-02-11T05:09:48;103426.66;;;16.51;47.80
59190;BME280;50749;51.636;4.948;2023-02-11T05:12:14;103430.53;;;16.50;47.75
59190;BME280;50749;51.636;4.948;2023-02-11T05:14:40;103432.47;;;16.49;47.80
59190;BME280;50749;51.636;4.948;2023-02-11T05:17:06;103434.38;;;16.49;47.81
59190;BME280;50749;51.636;4.948;2023-02-11T05:19:32;103431.63;;;16.49;48.09
59190;BME280;50749;51.636;4.948;2023-02-11T05:21:58;103427.75;;;16.50;47.93
59190;BME280;50749;51.636;4.948;2023-02-11T05:24:23;103434.38;;;16.49;48.04
59190;BME280;50749;51.636;4.948;2023-02-11T05:26:49;103427.22;;;16.48;48.04
59190;BME280;50749;51.636;4.948;2023-02-11T05:29:15;103441.31;;;16.46;47.97
59190;BME280;50749;51.636;4.948;2023-02-11T05:31:41;103433.84;;;16.47;47.96
59190;BME280;50749;51.636;4.948;2023-02-11T05:34:07;103442.13;;;16.47;47.79
59190;BME280;50749;51.636;4.948;2023-02-11T05:36:33;103435.78;;;16.46;47.67
59190;BME280;50749;51.636;4.948;2023-02-11T05:38:58;103429.72;;;16.44;47.95
59190;BME280;50749;51.636;4.948;2023-02-11T05:41:24;103426.97;;;16.44;47.83
59190;BME280;50749;51.636;4.948;2023-02-11T05:43:50;103441.06;;;16.43;48.00
59190;BME280;50749;51.636;4.948;2023-02-11T05:46:16;103419.78;;;16.43;47.85
59190;BME280;50749;51.636;4.948;2023-02-11T05:48:42;103421.72;;;16.43;47.70
59190;BME280;50749;51.636;4.948;2023-02-11T05:51:08;103415.38;;;16.42;47.75
59190;BME280;50749;51.636;4.948;2023-02-11T05:53:34;103404.03;;;16.44;48.01
59190;BME280;50749;51.636;4.948;2023-02-11T05:56:00;103407.94;;;16.43;47.93
59190;BME280;50749;51.636;4.948;2023-02-11T05:58:27;103404.03;;;16.44;48.18
59190;BME280;50749;51.636;4.948;2023-02-11T06:00:53;103401.84;;;16.46;47.81
59190;BME280;50749;51.636;4.948;2023-02-11T06:03:19;103399.03;;;16.51;48.13
59190;BME280;50749;51.636;4.948;2023-02-11T06:05:45;103401.78;;;16.56;47.95
59190;BME280;50749;51.636;4.948;2023-02-11T06:08:11;103415.25;;;16.63;47.61
59190;BME280;50749;51.636;4.948;2023-02-11T06:10:37;103419.03;;;16.72;47.45
59190;BME280;50749;51.636;4.948;2023-02-11T06:13:03;103422.84;;;16.81;47.68
59190;BME280;50749;51.636;4.948;2023-02-11T06:15:29;103431.38;;;16.90;47.57
59190;BME280;50749;51.636;4.948;2023-02-11T06:17:55;103441.81;;;16.98;47.69
59190;BME280;50749;51.636;4.948;2023-02-11T06:20:21;103430.72;;;17.03;47.66
59190;BME280;50749;51.636;4.948;2023-02-11T06:22:47;103432.03;;;17.11;47.28
59190;BME280;50749;51.636;4.948;2023-02-11T06:25:13;103435.00;;;17.20;47.55
59190;BME280;50749;51.636;4.948;2023-02-11T06:27:40;103440.50;;;17.25;47.06
59190;BME280;50749;51.636;4.948;2023-02-11T06:30:06;103432.38;;;17.34;47.58
59190;BME280;50749;51.636;4.948;2023-02-11T06:32:32;103427.63;;;17.39;47.17
59190;BME280;50749;51.636;4.948;2023-02-11T06:34:58;103433.63;;;17.46;47.89
59190;BME280;50749;51.636;4.948;2023-02-11T06:37:25;103427.75;;;17.53;47.90
59190;BME280;50749;51.636;4.948;2023-02-11T06:39:50;103430.44;;;17.58;47.59
59190;BME280;50749;51.636;4.948;2023-02-11T06:42:16;103434.00;;;17.64;47.88
59190;BME280;50749;51.636;4.948;2023-02-11T06:44:42;103439.47;;;17.69;47.64
59190;BME280;50749;51.636;4.948;2023-02-11T06:47:09;103441.38;;;17.74;47.76
59190;BME280;50749;51.636;4.948;2023-02-11T06:49:35;103440.47;;;17.78;47.85
59190;BME280;50749;51.636;4.948;2023-02-11T06:52:01;103439.06;;;17.81;47.79
59190;BME280;50749;51.636;4.948;2023-02-11T06:54:27;103439.31;;;17.85;47.56
59190;BME280;50749;51.636;4.948;2023-02-11T06:56:53;103441.53;;;17.88;47.82
59190;BME280;50749;51.636;4.948;2023-02-11T06:59:19;103451.16;;;17.90;47.96
59190;BME280;50749;51.636;4.948;2023-02-11T07:01:46;103453.34;;;17.93;47.82
59190;BME280;50749;51.636;4.948;2023-02-11T07:04:12;103452.22;;;17.94;48.13
59190;BME280;50749;51.636;4.948;2023-02-11T07:06:40;103453.56;;;17.97;48.04
59190;BME280;50749;51.636;4.948;2023-02-11T07:09:06;103451.66;;;17.97;48.16
59190;BME280;50749;51.636;4.948;2023-02-11T07:11:33;103453.84;;;18.00;48.13
59190;BME280;50749;51.636;4.948;2023-02-11T07:14:05;103457.41;;;18.01;47.94
59190;BME280;50749;51.636;4.948;2023-02-11T07:16:31;103471.53;;;17.99;47.67
59190;BME280;50749;51.636;4.948;2023-02-11T07:18:57;103476.25;;;17.99;48.07
59190;BME280;50749;51.636;4.948;2023-02-11T07:21:23;103481.81;;;17.99;47.82
59190;BME280;50749;51.636;4.948;2023-02-11T07:23:49;103473.50;;;17.99;47.71
59190;BME280;50749;51.636;4.948;2023-02-11T07:26:21;103471.25;;;18.01;48.07
59190;BME280;50749;51.636;4.948;2023-02-11T07:28:51;103472.34;;;18.00;48.00
59190;BME280;50749;51.636;4.948;2023-02-11T07:33:44;103472.34;;;18.00;48.28
59190;BME280;50749;51.636;4.948;2023-02-11T07:36:12;103484.28;;;18.00;48.30
59190;BME280;50749;51.636;4.948;2023-02-11T07:38:39;103479.56;;;18.01;48.14
59190;BME280;50749;51.636;4.948;2023-02-11T07:41:07;103484.81;;;18.03;48.50
59190;BME280;50749;51.636;4.948;2023-02-11T07:43:34;103491.16;;;18.03;48.42
59190;BME280;50749;51.636;4.948;2023-02-11T07:46:09;103497.22;;;18.05;48.79
59190;BME280;50749;51.636;4.948;2023-02-11T07:48:36;103492.75;;;18.09;48.61
59190;BME280;50749;51.636;4.948;2023-02-11T07:51:10;103498.22;;;18.14;48.79
59190;BME280;50749;51.636;4.948;2023-02-11T07:53:37;103496.56;;;18.13;48.54
59190;BME280;50749;51.636;4.948;2023-02-11T07:56:04;103498.50;;;18.13;48.14
59190;BME280;50749;51.636;4.948;2023-02-11T07:58:31;103493.78;;;18.13;48.42
59190;BME280;50749;51.636;4.948;2023-02-11T08:01:05;103508.16;;;18.15;48.49
59190;BME280;50749;51.636;4.948;2023-02-11T08:03:33;103495.47;;;18.14;48.26
59190;BME280;50749;51.636;4.948;2023-02-11T08:06:03;103507.06;;;18.16;48.67
59190;BME280;50749;51.636;4.948;2023-02-11T08:08:30;103505.38;;;18.15;48.67
59190;BME280;50749;51.636;4.948;2023-02-11T08:10:56;103504.88;;;18.13;48.80
59190;BME280;50749;51.636;4.948;2023-02-11T08:13:22;103512.34;;;18.13;48.50
59190;BME280;50749;51.636;4.948;2023-02-11T08:15:48;103511.00;;;18.10;48.79
59190;BME280;50749;51.636;4.948;2023-02-11T08:18:14;103512.94;;;18.10;48.46
59190;BME280;50749;51.636;4.948;2023-02-11T08:20:39;103523.72;;;18.11;48.38
59190;BME280;50749;51.636;4.948;2023-02-11T08:23:06;103519.00;;;18.12;48.51
59190;BME280;50749;51.636;4.948;2023-02-11T08:25:32;103526.50;;;18.11;48.56
59190;BME280;50749;51.636;4.948;2023-02-11T08:27:58;103519.28;;;18.10;48.73
59190;BME280;50749;51.636;4.948;2023-02-11T08:30:24;103525.38;;;18.12;48.53
59190;BME280;50749;51.636;4.948;2023-02-11T08:32:50;103517.09;;;18.12;48.87
59190;BME280;50749;51.636;4.948;2023-02-11T08:35:16;103522.28;;;18.14;49.05
59190;BME280;50749;51.636;4.948;2023-02-11T08:37:42;103525.91;;;18.14;48.87
59190;BME280;50749;51.636;4.948;2023-02-11T08:40:08;103527.53;;;18.15;47.99
59190;BME280;50749;51.636;4.948;2023-02-11T08:42:34;103529.25;;;18.11;48.67
59190;BME280;50749;51.636;4.948;2023-02-11T08:44:59;103520.44;;;18.09;48.29
59190;BME280;50749;51.636;4.948;2023-02-11T08:47:25;103535.69;;;18.07;48.46
59190;BME280;50749;51.636;4.948;2023-02-11T08:49:51;103535.31;;;18.13;48.11
59190;BME280;50749;51.636;4.948;2023-02-11T08:52:17;103529.59;;;18.29;48.33
59190;BME280;50749;51.636;4.948;2023-02-11T08:54:43;103536.66;;;18.40;47.93
59190;BME280;50749;51.636;4.948;2023-02-11T08:57:09;103538.13;;;18.56;48.06
59190;BME280;50749;51.636;4.948;2023-02-11T08:59:34;103537.97;;;18.67;47.56
59190;BME280;50749;51.636;4.948;2023-02-11T09:02:00;103533.09;;;18.78;47.81
59190;BME280;50749;51.636;4.948;2023-02-11T09:04:26;103529.19;;;18.84;47.74
59190;BME280;50749;51.636;4.948;2023-02-11T09:06:52;103531.69;;;18.80;47.54
59190;BME280;50749;51.636;4.948;2023-02-11T09:09:18;103537.25;;;18.80;48.07
59190;BME280;50749;51.636;4.948;2023-02-11T09:11:44;103543.16;;;18.73;48.13
59190;BME280;50749;51.636;4.948;2023-02-11T09:14:20;103541.78;;;18.71;48.03
59190;BME280;50749;51.636;4.948;2023-02-11T09:16:47;103535.81;;;18.64;48.06
59190;BME280;50749;51.636;4.948;2023-02-11T09:19:12;103540.59;;;18.58;48.38
59190;BME280;50749;51.636;4.948;2023-02-11T09:21:39;103542.28;;;18.54;48.10
59190;BME280;50749;51.636;4.948;2023-02-11T09:24:05;103542.06;;;18.50;48.59
59190;BME280;50749;51.636;4.948;2023-02-11T09:26:35;103546.56;;;18.46;48.36
59190;BME280;50749;51.636;4.948;2023-02-11T09:29:02;103548.81;;;18.44;48.60
59190;BME280;50749;51.636;4.948;2023-02-11T09:31:30;103551.59;;;18.44;48.49
59190;BME280;50749;51.636;4.948;2023-02-11T09:33:58;103550.44;;;18.45;49.22
59190;BME280;50749;51.636;4.948;2023-02-11T09:36:31;103558.25;;;18.43;48.49
59190;BME280;50749;51.636;4.948;2023-02-11T09:38:59;103561.00;;;18.43;48.63
59190;BME280;50749;51.636;4.948;2023-02-11T09:44:41;103558.81;;;18.40;48.58
59190;BME280;50749;51.636;4.948;2023-02-11T09:47:31;103553.56;;;18.38;49.00
59190;BME280;50749;51.636;4.948;2023-02-11T09:50:04;103566.63;;;18.38;48.76
59190;BME280;50749;51.636;4.948;2023-02-11T09:52:40;103556.13;;;18.35;49.12
59190;BME280;50749;51.636;4.948;2023-02-11T09:55:20;103572.72;;;18.35;49.01
59190;BME280;50749;51.636;4.948;2023-02-11T09:57:48;103568.31;;;18.34;48.84
59190;BME280;50749;51.636;4.948;2023-02-11T10:00:36;103572.72;;;18.35;48.99
59190;BME280;50749;51.636;4.948;2023-02-11T10:05:59;103574.97;;;18.33;49.04
59190;BME280;50749;51.636;4.948;2023-02-11T10:11:50;103578.84;;;18.32;49.68
59190;BME280;50749;51.636;4.948;2023-02-11T10:17:13;103571.47;;;18.22;49.65
59190;BME280;50749;51.636;4.948;2023-02-11T10:24:59;103578.69;;;18.23;49.78
59190;BME280;50749;51.636;4.948;2023-02-11T10:27:34;103582.28;;;18.24;50.06
59190;BME280;50749;51.636;4.948;2023-02-11T10:33:02;103595.59;;;18.22;49.72
59190;BME280;50749;51.636;4.948;2023-02-11T10:35:29;103601.72;;;18.18;50.15
59190;BME280;50749;51.636;4.948;2023-02-11T10:37:56;103606.66;;;18.22;50.20
59190;BME280;50749;51.636;4.948;2023-02-11T10:40:26;103606.97;;;18.20;50.71
59190;BME280;50749;51.636;4.948;2023-02-11T10:43:05;103613.88;;;18.23;50.66
59190;BME280;50749;51.636;4.948;2023-02-11T10:45:56;103614.69;;;18.23;50.75
59190;BME280;50749;51.636;4.948;2023-02-11T10:48:46;103621.59;;;18.26;50.86
59190;BME280;50749;51.636;4.948;2023-02-11T10:53:48;103629.28;;;18.29;51.25
59190;BME280;50749;51.636;4.948;2023-02-11T10:56:25;103632.28;;;18.32;51.09
59190;BME280;50749;51.636;4.948;2023-02-11T10:59:00;103635.63;;;18.34;51.09
59190;BME280;50749;51.636;4.948;2023-02-11T11:01:46;103632.25;;;18.37;51.52
59190;BME280;50749;51.636;4.948;2023-02-11T11:09:49;103628.34;;;18.38;51.12
59190;BME280;50749;51.636;4.948;2023-02-11T11:15:02;103642.44;;;18.42;52.10
59190;BME280;50749;51.636;4.948;2023-02-11T11:17:28;103631.34;;;18.42;50.85
59190;BME280;50749;51.636;4.948;2023-02-11T11:22:50;103623.06;;;18.42;52.34
59190;BME280;50749;51.636;4.948;2023-02-11T11:25:28;103632.72;;;18.45;51.51
59190;BME280;50749;51.636;4.948;2023-02-11T11:27:58;103634.38;;;18.46;51.33
59190;BME280;50749;51.636;4.948;2023-02-11T11:30:32;103639.63;;;18.47;52.24
59190;BME280;50749;51.636;4.948;2023-02-11T11:33:03;103641.84;;;18.45;51.48
59190;BME280;50749;51.636;4.948;2023-02-11T11:35:30;103636.59;;;18.44;51.38
59190;BME280;50749;51.636;4.948;2023-02-11T11:38:00;103634.13;;;18.42;51.16
59190;BME280;50749;51.636;4.948;2023-02-11T11:40:28;103631.91;;;18.44;51.46
59190;BME280;50749;51.636;4.948;2023-02-11T11:45:54;103637.75;;;18.43;51.61
59190;BME280;50749;51.636;4.948;2023-02-11T11:48:39;103633.31;;;18.42;51.55
59190;BME280;50749;51.636;4.948;2023-02-11T11:51:09;103639.66;;;18.42;51.69
59190;BME280;50749;51.636;4.948;2023-02-11T11:53:57;103636.91;;;18.42;51.64
59190;BME280;50749;51.636;4.948;2023-02-11T11:56:26;103641.84;;;18.45;51.94
59190;BME280;50749;51.636;4.948;2023-02-11T11:58:54;103639.09;;;18.45;52.91
59190;BME280;50749;51.636;4.948;2023-02-11T12:21:10;103634.06;;;18.47;51.72
59190;BME280;50749;51.636;4.948;2023-02-11T12:25:56;103628.25;;;18.49;52.27
59190;BME280;50749;51.636;4.948;2023-02-11T12:28:31;103634.63;;;18.49;52.28
59190;BME280;50749;51.636;4.948;2023-02-11T12:42:22;103632.91;;;18.53;53.26
59190;BME280;50749;51.636;4.948;2023-02-11T12:50:50;103616.00;;;18.55;54.21
59190;BME280;50749;51.636;4.948;2023-02-11T12:56:11;103609.94;;;18.53;55.02
59190;BME280;50749;51.636;4.948;2023-02-11T12:58:39;103604.97;;;18.50;54.61
59190;BME280;50749;51.636;4.948;2023-02-11T13:01:11;103605.50;;;18.52;53.96
59190;BME280;50749;51.636;4.948;2023-02-11T13:03:50;103615.19;;;18.54;54.53
59190;BME280;50749;51.636;4.948;2023-02-11T13:06:21;103607.75;;;18.50;54.27
59190;BME280;50749;51.636;4.948;2023-02-11T13:08:53;103610.22;;;18.51;54.19
59190;BME280;50749;51.636;4.948;2023-02-11T13:11:36;103610.50;;;18.50;55.33
59190;BME280;50749;51.636;4.948;2023-02-11T13:14:27;103608.31;;;18.47;55.20
59190;BME280;50749;51.636;4.948;2023-02-11T13:16:54;103609.13;;;18.47;55.37
59190;BME280;50749;51.636;4.948;2023-02-11T13:24:56;103598.69;;;18.44;56.00
59190;BME280;50749;51.636;4.948;2023-02-11T13:35:36;103596.44;;;18.46;55.75
59190;BME280;50749;51.636;4.948;2023-02-11T13:38:04;103594.47;;;18.47;55.70
59190;BME280;50749;51.636;4.948;2023-02-11T13:40:34;103592.53;;;18.47;55.73
59190;BME280;50749;51.636;4.948;2023-02-11T13:43:03;103604.44;;;18.48;55.59
59190;BME280;50749;51.636;4.948;2023-02-11T13:45:37;103599.72;;;18.48;55.56
59190;BME280;50749;51.636;4.948;2023-02-11T13:48:14;103591.13;;;18.50;55.98
59190;BME280;50749;51.636;4.948;2023-02-11T13:50:48;103596.06;;;18.53;55.89
59190;BME280;50749;51.636;4.948;2023-02-11T13:53:15;103590.53;;;18.53;55.86
59190;BME280;50749;51.636;4.948;2023-02-11T13:55:45;103594.13;;;18.53;55.11
59190;BME280;50749;51.636;4.948;2023-02-11T14:00:53;103596.06;;;18.53;55.08
59190;BME280;50749;51.636;4.948;2023-02-11T14:09:07;103597.41;;;18.55;55.74
59190;BME280;50749;51.636;4.948;2023-02-11T14:14:27;103606.56;;;18.56;56.43
59190;BME280;50749;51.636;4.948;2023-02-11T14:19:52;103607.38;;;18.56;55.77
59190;BME280;50749;51.636;4.948;2023-02-11T14:22:28;103609.00;;;18.57;55.81
59190;BME280;50749;51.636;4.948;2023-02-11T14:24:57;103607.69;;;18.55;56.21
59190;BME280;50749;51.636;4.948;2023-02-11T14:35:43;103609.69;;;18.49;55.18
59190;BME280;50749;51.636;4.948;2023-02-11T14:41:08;103606.06;;;18.49;55.22
59190;BME280;50749;51.636;4.948;2023-02-11T14:43:50;103611.38;;;18.45;55.68
59190;BME280;50749;51.636;4.948;2023-02-11T14:46:18;103606.44;;;18.42;55.67
59190;BME280;50749;51.636;4.948;2023-02-11T14:48:47;103608.69;;;18.40;55.53
59190;BME280;50749;51.636;4.948;2023-02-11T14:51:43;103603.13;;;18.40;55.39
59190;BME280;50749;51.636;4.948;2023-02-11T14:54:17;103608.16;;;18.38;55.21
59190;BME280;50749;51.636;4.948;2023-02-11T14:57:04;103612.03;;;18.37;55.31
59190;BME280;50749;51.636;4.948;2023-02-11T14:59:31;103620.34;;;18.37;55.49
59190;BME280;50749;51.636;4.948;2023-02-11T15:01:56;103617.56;;;18.37;55.74
59190;BME280;50749;51.636;4.948;2023-02-11T15:04:30;103612.09;;;18.32;55.60
59190;BME280;50749;51.636;4.948;2023-02-11T15:07:01;103612.09;;;18.32;54.46
59190;BME280;50749;51.636;4.948;2023-02-11T15:09:43;103612.09;;;18.32;54.37
59190;BME280;50749;51.636;4.948;2023-02-11T15:12:22;103611.84;;;18.28;54.12
59190;BME280;50749;51.636;4.948;2023-02-11T15:14:52;103615.22;;;18.25;54.13
59190;BME280;50749;51.636;4.948;2023-02-11T15:17:26;103620.50;;;18.22;54.38
59190;BME280;50749;51.636;4.948;2023-02-11T15:19:54;103623.63;;;18.15;53.40
59190;BME280;50749;51.636;4.948;2023-02-11T15:22:24;103629.97;;;18.15;54.39
59190;BME280;50749;51.636;4.948;2023-02-11T15:24:58;103629.97;;;18.15;53.72
59190;BME280;50749;51.636;4.948;2023-02-11T15:27:24;103632.75;;;18.15;54.16
59190;BME280;50749;51.636;4.948;2023-02-11T15:29:51;103613.38;;;18.15;54.92
59190;BME280;50749;51.636;4.948;2023-02-11T15:32:22;103627.22;;;18.15;54.83
59190;BME280;50749;51.636;4.948;2023-02-11T15:34:51;103630.25;;;18.19;54.86
59190;BME280;50749;51.636;4.948;2023-02-11T15:37:23;103621.63;;;18.20;54.88
59190;BME280;50749;51.636;4.948;2023-02-11T15:39:50;103628.81;;;18.22;54.84
59190;BME280;50749;51.636;4.948;2023-02-11T15:42:24;103626.03;;;18.22;55.45
59190;BME280;50749;51.636;4.948;2023-02-11T15:47:35;103628.81;;;18.22;55.06
59190;BME280;50749;51.636;4.948;2023-02-11T15:50:01;103634.88;;;18.24;55.09
59190;BME280;50749;51.636;4.948;2023-02-11T15:52:27;103635.72;;;18.24;55.46